createdAt,value
2018-01-14T00:01:07.670Z,14.63
2018-01-14T00:03:41.675Z,13.23
2018-01-14T00:06:15.588Z,13.67
2018-01-14T00:08:49.397Z,13.80
2018-01-14T00:11:23.067Z,15.13
2018-01-14T00:13:56.907Z,14.03
2018-01-14T00:16:30.934Z,12.73
2018-01-14T00:19:04.609Z,13.33
2018-01-14T00:21:38.385Z,15.97
2018-01-14T00:24:12.370Z,15.33
2018-01-14T00:26:47.144Z,14.83
2018-01-14T00:29:20.921Z,14.93
2018-01-14T00:31:54.988Z,15.03
2018-01-14T00:34:28.981Z,15.77
2018-01-14T00:37:03.740Z,15.87
2018-01-14T00:39:37.615Z,14.47
2018-01-14T00:42:11.988Z,17.13
2018-01-14T00:44:46.454Z,15.30
2018-01-14T00:47:20.363Z,15.20
2018-01-14T00:49:54.068Z,15.23
2018-01-14T00:52:28.588Z,15.93
2018-01-14T00:55:03.603Z,21.23
2018-01-14T00:57:37.673Z,19.17
2018-01-14T01:00:13.017Z,24.20
2018-01-14T01:02:47.785Z,22.90
2018-01-14T01:05:21.666Z,18.57
2018-01-14T01:07:55.567Z,19.37
2018-01-14T01:10:29.363Z,18.73
2018-01-14T01:13:03.108Z,17.60
2018-01-14T01:15:36.827Z,20.30
2018-01-14T01:18:10.723Z,20.63
2018-01-14T01:20:44.895Z,17.03
2018-01-14T01:23:19.043Z,18.73
2018-01-14T01:25:53.384Z,16.73
2018-01-14T01:28:27.429Z,20.50
2018-01-14T01:31:02.086Z,19.20
2018-01-14T01:33:36.165Z,17.80
2018-01-14T01:36:10.617Z,24.23
2018-01-14T01:38:44.970Z,20.50
2018-01-14T01:41:18.806Z,21.77
2018-01-14T01:43:52.620Z,20.20
2018-01-14T01:46:26.693Z,21.83
2018-01-14T01:49:01.419Z,22.07
2018-01-14T01:51:35.363Z,21.10
2018-01-14T01:54:10.103Z,21.93
2018-01-14T01:56:43.959Z,21.90
2018-01-14T01:59:18.570Z,21.53
2018-01-14T02:01:52.597Z,23.50
2018-01-14T02:04:26.584Z,23.90
2018-01-14T02:07:01.198Z,21.33
2018-01-14T02:09:35.937Z,21.57
2018-01-14T02:12:10.317Z,20.73
2018-01-14T02:14:44.001Z,21.07
2018-01-14T02:17:17.870Z,21.23
2018-01-14T02:19:51.803Z,23.33
2018-01-14T02:22:25.824Z,20.23
2018-01-14T02:25:00.307Z,19.67
2018-01-14T02:27:35.001Z,19.87
2018-01-14T02:30:09.234Z,19.23
2018-01-14T02:32:44.571Z,18.90
2018-01-14T02:35:18.637Z,19.90
2018-01-14T02:37:53.297Z,18.40
2018-01-14T02:40:27.376Z,21.50
2018-01-14T02:43:01.221Z,20.80
2018-01-14T02:45:34.993Z,19.40
2018-01-14T02:48:08.908Z,22.17
2018-01-14T02:50:43.497Z,18.77
2018-01-14T02:53:18.215Z,18.57
2018-01-14T02:55:52.322Z,17.07
2018-01-14T02:58:26.017Z,20.43
2018-01-14T03:01:00.462Z,20.00
2018-01-14T03:03:34.828Z,19.63
2018-01-14T03:06:09.490Z,17.20
2018-01-14T03:08:43.597Z,17.67
2018-01-14T03:11:17.666Z,17.50
2018-01-14T03:13:51.437Z,15.90
2018-01-14T03:16:25.226Z,17.27
2018-01-14T03:18:58.996Z,18.57
2018-01-14T03:21:32.967Z,15.80
2018-01-14T03:24:06.692Z,16.10
2018-01-14T03:26:40.672Z,16.37
2018-01-14T03:29:15.128Z,16.63
2018-01-14T03:31:49.329Z,17.17
2018-01-14T03:34:23.162Z,19.03
2018-01-14T03:36:57.915Z,17.53
2018-01-14T03:39:31.827Z,16.97
2018-01-14T03:42:05.560Z,17.70
2018-01-14T03:44:39.996Z,15.80
2018-01-14T03:47:14.755Z,16.47
2018-01-14T03:49:48.523Z,17.53
2018-01-14T03:52:22.436Z,16.23
2018-01-14T03:54:56.275Z,16.30
2018-01-14T03:57:30.045Z,16.87
2018-01-14T04:00:05.290Z,16.47
2018-01-14T04:02:40.668Z,16.73
2018-01-14T04:05:15.454Z,16.53
2018-01-14T04:07:49.558Z,15.30
2018-01-14T04:10:23.432Z,16.13
2018-01-14T04:12:58.361Z,16.40
2018-01-14T04:15:32.198Z,17.30
2018-01-14T04:18:06.978Z,15.57
2018-01-14T04:20:42.007Z,15.20
2018-01-14T04:23:19.408Z,15.63
2018-01-14T04:25:53.847Z,17.03
2018-01-14T04:28:28.088Z,15.50
2018-01-14T04:31:02.844Z,14.87
2018-01-14T04:33:36.639Z,16.70
2018-01-14T04:36:10.931Z,15.33
2018-01-14T04:38:45.633Z,17.60
2018-01-14T04:41:19.610Z,14.10
2018-01-14T04:43:54.364Z,16.93
2018-01-14T04:46:28.337Z,15.43
2018-01-14T04:49:02.285Z,15.83
2018-01-14T04:51:36.773Z,14.97
2018-01-14T04:54:11.632Z,15.17
2018-01-14T04:56:45.494Z,15.90
2018-01-14T04:59:19.323Z,15.67
2018-01-14T05:01:53.252Z,15.17
2018-01-14T05:04:27.882Z,16.80
2018-01-14T05:07:01.898Z,15.63
2018-01-14T05:09:35.946Z,18.73
2018-01-14T05:12:09.725Z,15.10
2018-01-14T05:14:43.739Z,15.60
2018-01-14T05:17:17.597Z,17.00
2018-01-14T05:19:51.369Z,15.97
2018-01-14T05:22:25.439Z,17.40
2018-01-14T05:24:59.253Z,17.33
2018-01-14T05:27:33.896Z,17.23
2018-01-14T05:30:08.756Z,16.67
2018-01-14T05:32:42.540Z,17.87
2018-01-14T05:35:17.222Z,16.67
2018-01-14T05:37:51.650Z,15.83
2018-01-14T05:40:25.495Z,16.50
2018-01-14T05:42:59.960Z,17.23
2018-01-14T05:45:34.537Z,17.50
2018-01-14T05:48:08.314Z,17.60
2018-01-14T05:50:42.343Z,17.23
2018-01-14T05:53:16.633Z,19.13
2018-01-14T05:55:50.324Z,18.80
2018-01-14T05:58:24.968Z,18.57
2018-01-14T06:00:58.850Z,20.27
2018-01-14T06:03:32.667Z,20.07
2018-01-14T06:06:06.535Z,19.80
2018-01-14T06:08:44.743Z,19.00
2018-01-14T06:11:20.288Z,20.83
2018-01-14T06:13:55.015Z,20.77
2018-01-14T06:16:30.059Z,20.17
2018-01-14T06:19:06.207Z,20.47
2018-01-14T06:21:41.764Z,19.47
2018-01-14T06:24:17.446Z,19.20
2018-01-14T06:26:51.856Z,20.67
2018-01-14T06:29:26.553Z,20.53
2018-01-14T06:32:01.484Z,21.17
2018-01-14T06:34:36.929Z,21.57
2018-01-14T06:37:12.020Z,20.30
2018-01-14T06:39:47.026Z,21.27
2018-01-14T06:42:24.975Z,20.43
2018-01-14T06:44:59.517Z,20.47
2018-01-14T06:47:34.556Z,20.13
2018-01-14T06:50:09.309Z,20.17
2018-01-14T06:52:44.940Z,20.13
2018-01-14T06:55:23.226Z,19.07
2018-01-14T06:57:58.973Z,19.80
2018-01-14T07:00:33.306Z,19.10
2018-01-14T07:03:07.629Z,20.43
2018-01-14T07:05:42.997Z,20.67
2018-01-14T07:08:17.944Z,19.47
2018-01-14T07:10:51.953Z,19.40
2018-01-14T07:13:25.678Z,20.00
2018-01-14T07:15:59.471Z,20.07
2018-01-14T07:18:34.185Z,20.30
2018-01-14T07:21:08.211Z,19.23
2018-01-14T07:23:41.999Z,20.47
2018-01-14T07:26:16.815Z,19.93
2018-01-14T07:28:51.447Z,20.20
2018-01-14T07:31:25.369Z,20.13
2018-01-14T07:33:59.213Z,18.40
2018-01-14T07:36:32.887Z,19.30
2018-01-14T07:39:06.712Z,19.87
2018-01-14T07:41:40.500Z,19.07
2018-01-14T07:44:14.185Z,19.73
2018-01-14T07:46:47.957Z,19.40
2018-01-14T07:49:22.713Z,18.70
2018-01-14T07:51:56.665Z,18.67
2018-01-14T07:54:30.836Z,19.30
2018-01-14T07:57:05.551Z,17.37
2018-01-14T07:59:39.645Z,18.73
2018-01-14T08:02:13.568Z,18.20
2018-01-14T08:04:48.247Z,17.87
2018-01-14T08:07:22.017Z,16.97
2018-01-14T08:09:56.089Z,17.50
2018-01-14T08:12:31.449Z,18.33
2018-01-14T08:15:05.511Z,17.97
2018-01-14T08:17:39.822Z,18.17
2018-01-14T08:20:13.513Z,19.77
2018-01-14T08:22:47.216Z,18.83
2018-01-14T08:25:21.950Z,18.07
2018-01-14T08:27:55.961Z,16.73
2018-01-14T08:30:29.841Z,16.93
2018-01-14T08:33:03.569Z,16.83
2018-01-14T08:35:37.838Z,16.67
2018-01-14T08:38:11.528Z,18.23
2018-01-14T08:40:45.624Z,17.43
2018-01-14T08:43:21.644Z,17.53
2018-01-14T08:45:56.096Z,18.33
2018-01-14T08:48:30.006Z,17.10
2018-01-14T08:51:03.885Z,19.33
2018-01-14T08:53:37.741Z,18.17
2018-01-14T08:56:11.980Z,19.67
2018-01-14T08:58:46.337Z,21.07
2018-01-14T09:01:25.937Z,23.43
2018-01-14T09:04:00.177Z,22.63
2018-01-14T09:06:34.125Z,24.53
2018-01-14T09:09:08.041Z,27.17
2018-01-14T09:11:42.911Z,21.23
2018-01-14T09:14:16.704Z,23.37
2018-01-14T09:16:50.449Z,20.47
2018-01-14T09:19:24.624Z,20.83
2018-01-14T09:21:58.597Z,19.63
2018-01-14T09:24:33.278Z,19.60
2018-01-14T09:27:08.413Z,20.47
2018-01-14T09:29:42.348Z,23.77
2018-01-14T09:32:16.960Z,32.50
2018-01-14T09:34:51.181Z,28.90
2018-01-14T09:37:25.203Z,23.90
2018-01-14T09:39:59.878Z,22.23
2018-01-14T09:42:33.711Z,18.90
2018-01-14T09:45:07.777Z,21.83
2018-01-14T09:47:41.569Z,20.33
2018-01-14T09:50:16.723Z,25.07
2018-01-14T09:52:51.010Z,17.57
2018-01-14T09:55:24.780Z,20.90
2018-01-14T09:57:58.580Z,18.07
2018-01-14T10:00:33.089Z,20.00
2018-01-14T10:03:07.486Z,18.80
2018-01-14T10:05:41.954Z,23.77
2018-01-14T10:08:15.704Z,16.03
2018-01-14T10:10:49.459Z,20.07
2018-01-14T10:13:23.798Z,24.43
2018-01-14T10:15:58.262Z,25.43
2018-01-14T10:18:32.398Z,23.77
2018-01-14T10:21:06.383Z,23.63
2018-01-14T10:23:40.151Z,22.63
2018-01-14T10:26:14.080Z,17.93
2018-01-14T10:28:48.138Z,18.50
2018-01-14T10:31:21.818Z,21.33
2018-01-14T10:33:56.390Z,23.00
2018-01-14T10:36:30.382Z,24.13
2018-01-14T10:39:04.817Z,25.73
2018-01-14T10:41:38.762Z,20.07
2018-01-14T10:44:13.540Z,23.57
2018-01-14T10:46:48.519Z,36.43
2018-01-14T10:49:22.674Z,43.27
2018-01-14T10:51:56.487Z,34.23
2018-01-14T10:54:30.420Z,38.40
2018-01-14T10:57:04.726Z,24.67
2018-01-14T10:59:38.596Z,30.17
2018-01-14T11:02:12.392Z,30.47
2018-01-14T11:04:47.038Z,20.07
2018-01-14T11:07:21.065Z,25.43
2018-01-14T11:09:55.672Z,27.27
2018-01-14T11:12:29.614Z,45.83
2018-01-14T11:15:04.113Z,33.47
2018-01-14T11:17:38.156Z,31.23
2018-01-14T11:20:11.914Z,38.80
2018-01-14T11:22:46.533Z,42.03
2018-01-14T11:25:21.681Z,32.13
2018-01-14T11:27:55.713Z,33.80
2018-01-14T11:30:30.426Z,17.60
2018-01-14T11:33:05.536Z,30.47
2018-01-14T11:35:39.508Z,19.83
2018-01-14T11:38:13.190Z,29.43
2018-01-14T11:40:48.125Z,29.83
2018-01-14T11:43:24.916Z,16.13
2018-01-14T11:45:58.696Z,15.90
2018-01-14T11:48:33.101Z,17.37
2018-01-14T11:51:07.524Z,19.10
2018-01-14T11:53:41.473Z,18.73
2018-01-14T11:56:15.343Z,24.97
2018-01-14T11:58:49.250Z,17.90
2018-01-14T12:01:23.766Z,20.07
2018-01-14T12:03:58.479Z,18.67
2018-01-14T12:06:33.658Z,19.17
2018-01-14T12:09:07.607Z,20.03
2018-01-14T12:11:43.203Z,18.93
2018-01-14T12:14:17.353Z,16.43
2018-01-14T12:16:51.819Z,19.73
2018-01-14T12:19:26.504Z,22.87
2018-01-14T12:22:00.599Z,17.53
2018-01-14T12:24:35.981Z,15.47
2018-01-14T12:27:10.004Z,22.23
2018-01-14T12:29:43.919Z,19.03
2018-01-14T12:32:17.767Z,17.93
2018-01-14T12:34:53.513Z,16.17
2018-01-14T12:37:27.335Z,14.77
2018-01-14T12:40:01.080Z,19.63
2018-01-14T12:42:35.943Z,18.00
2018-01-14T12:45:10.045Z,16.23
2018-01-14T12:47:44.002Z,17.57
2018-01-14T12:50:19.564Z,21.77
2018-01-14T12:52:54.509Z,15.33
2018-01-14T12:55:28.531Z,15.10
2018-01-14T12:58:02.708Z,13.93
2018-01-14T13:00:38.163Z,14.33
2018-01-14T13:03:13.384Z,14.83
2018-01-14T13:05:47.027Z,14.00
2018-01-14T13:08:22.562Z,12.70
2018-01-14T13:10:56.492Z,12.43
2018-01-14T13:13:30.995Z,11.97
2018-01-14T13:16:05.507Z,13.20
2018-01-14T13:18:39.490Z,11.60
2018-01-14T13:21:14.136Z,11.57
2018-01-14T13:23:48.208Z,10.00
2018-01-14T13:26:22.229Z,11.33
2018-01-14T13:28:56.907Z,10.90
2018-01-14T13:31:30.865Z,11.07
2018-01-14T13:34:04.729Z,11.87
2018-01-14T13:36:38.617Z,10.83
2018-01-14T13:39:12.568Z,10.93
2018-01-14T13:41:46.195Z,11.03
2018-01-14T13:44:20.521Z,12.67
2018-01-14T13:46:55.057Z,12.60
2018-01-14T13:49:29.126Z,12.63
2018-01-14T13:52:03.309Z,13.37
2018-01-14T13:54:37.731Z,13.30
2018-01-14T13:57:11.728Z,13.17
2018-01-14T13:59:45.866Z,13.00
2018-01-14T14:02:19.775Z,12.23
2018-01-14T14:04:53.710Z,13.50
2018-01-14T14:07:28.016Z,13.20
2018-01-14T14:10:02.669Z,12.90
2018-01-14T14:12:36.546Z,14.20
2018-01-14T14:15:10.601Z,16.67
2018-01-14T14:17:44.552Z,13.00
2018-01-14T14:20:18.602Z,16.17
2018-01-14T14:22:54.173Z,13.87
2018-01-14T14:25:28.308Z,12.33
2018-01-14T14:28:03.016Z,15.47
2018-01-14T14:30:37.989Z,12.87
2018-01-14T14:33:12.132Z,13.60
2018-01-14T14:35:46.809Z,14.07
2018-01-14T14:38:20.981Z,16.33
2018-01-14T14:40:55.760Z,15.23
2018-01-14T14:43:29.811Z,16.43
2018-01-14T14:46:04.403Z,15.60
2018-01-14T14:48:38.063Z,14.00
2018-01-14T14:51:12.821Z,15.10
2018-01-14T14:53:46.921Z,14.50
2018-01-14T14:56:20.725Z,15.03
2018-01-14T14:58:54.651Z,13.40
2018-01-14T15:01:28.778Z,14.63
2018-01-14T15:04:04.277Z,14.83
2018-01-14T15:06:38.258Z,14.20
2018-01-14T15:09:13.188Z,17.43
2018-01-14T15:11:47.959Z,15.87
2018-01-14T15:14:21.941Z,15.90
2018-01-14T15:16:56.868Z,17.33
2018-01-14T15:19:30.983Z,17.90
2018-01-14T15:22:05.449Z,15.17
2018-01-14T15:24:40.754Z,14.13
2018-01-14T15:27:14.930Z,16.73
2018-01-14T15:29:48.759Z,16.70
2018-01-14T15:32:22.641Z,14.23
2018-01-14T15:34:57.183Z,15.73
2018-01-14T15:37:31.333Z,14.30
2018-01-14T15:40:05.310Z,13.97
2018-01-14T15:42:40.089Z,12.90
2018-01-14T15:45:14.095Z,15.20
2018-01-14T15:47:47.928Z,13.97
2018-01-14T15:50:21.800Z,15.23
2018-01-14T15:52:55.610Z,13.27
2018-01-14T15:55:30.214Z,16.73
2018-01-14T15:58:04.894Z,14.20
2018-01-14T16:00:39.535Z,15.17
2018-01-14T16:03:13.448Z,14.90
2018-01-14T16:05:48.810Z,14.60
2018-01-14T16:08:23.635Z,13.13
2018-01-14T16:10:58.100Z,14.77
2018-01-14T16:13:31.889Z,16.53
2018-01-14T16:16:05.757Z,14.70
2018-01-14T16:18:39.948Z,15.27
2018-01-14T16:21:15.513Z,14.83
2018-01-14T16:23:50.302Z,14.57
2018-01-14T16:26:24.482Z,14.57
2018-01-14T16:28:58.239Z,15.07
2018-01-14T16:31:32.173Z,15.73
2018-01-14T16:34:06.321Z,15.17
2018-01-14T16:36:40.808Z,15.90
2018-01-14T16:39:15.709Z,17.33
2018-01-14T16:41:50.662Z,15.27
2018-01-14T16:44:25.454Z,15.57
2018-01-14T16:46:59.480Z,14.33
2018-01-14T16:49:34.194Z,15.80
2018-01-14T16:52:08.639Z,16.17
2018-01-14T16:54:42.622Z,14.73
2018-01-14T16:57:17.262Z,16.00
2018-01-14T16:59:51.139Z,15.83
2018-01-14T17:02:25.733Z,14.33
2018-01-14T17:04:59.919Z,15.43
2018-01-14T17:07:33.758Z,14.90
2018-01-14T17:10:07.884Z,15.17
2018-01-14T17:12:42.909Z,13.83
2018-01-14T17:15:17.926Z,15.37
2018-01-14T17:17:52.127Z,15.37
2018-01-14T17:20:26.960Z,14.97
2018-01-14T17:23:00.761Z,13.57
2018-01-14T17:25:34.713Z,15.33
2018-01-14T17:28:08.628Z,15.30
2018-01-14T17:30:43.140Z,14.93
2018-01-14T17:33:17.122Z,15.40
2018-01-14T17:35:51.112Z,15.40
2018-01-14T17:38:25.742Z,15.17
2018-01-14T17:41:00.414Z,15.20
2018-01-14T17:43:35.526Z,15.37
2018-01-14T17:46:09.435Z,14.67
2018-01-14T17:48:43.373Z,14.60
2018-01-14T17:51:17.684Z,14.77
2018-01-14T17:53:52.342Z,14.03
2018-01-14T17:56:26.114Z,15.97
2018-01-14T17:59:00.867Z,14.70
2018-01-14T18:01:35.537Z,14.00
2018-01-14T18:04:09.596Z,14.80
2018-01-14T18:06:44.412Z,14.87
2018-01-14T18:09:18.684Z,15.23
2018-01-14T18:11:53.518Z,15.87
2018-01-14T18:14:28.077Z,15.17
2018-01-14T18:17:02.815Z,14.67
2018-01-14T18:19:36.699Z,15.00
2018-01-14T18:22:11.136Z,15.77
2018-01-14T18:24:45.121Z,15.87
2018-01-14T18:27:21.355Z,16.60
2018-01-14T18:29:55.516Z,15.87
2018-01-14T18:32:29.273Z,16.63
2018-01-14T18:35:04.108Z,17.67
2018-01-14T18:37:38.220Z,16.40
2018-01-14T18:40:11.984Z,16.63
2018-01-14T18:42:45.872Z,17.80
2018-01-14T18:45:19.677Z,16.97
2018-01-14T18:47:53.426Z,17.00
2018-01-14T18:50:28.508Z,16.47
2018-01-14T18:53:02.679Z,16.60
2018-01-14T18:55:36.557Z,16.13
2018-01-14T18:58:10.530Z,14.80
2018-01-14T19:00:44.262Z,14.67
2018-01-14T19:03:20.864Z,15.70
2018-01-14T19:05:55.449Z,15.63
2018-01-14T19:08:29.280Z,14.37
2018-01-14T19:11:03.058Z,15.53
2018-01-14T19:13:37.594Z,14.80
2018-01-14T19:16:11.625Z,15.00
2018-01-14T19:18:46.229Z,14.20
2018-01-14T19:21:20.428Z,14.03
2018-01-14T19:23:55.195Z,14.20
2018-01-14T19:26:28.838Z,13.70
2018-01-14T19:29:03.497Z,13.27
2018-01-14T19:31:38.223Z,12.97
2018-01-14T19:34:12.235Z,15.20
2018-01-14T19:36:45.992Z,14.07
2018-01-14T19:39:20.766Z,14.33
2018-01-14T19:41:54.923Z,14.73
2018-01-14T19:44:28.759Z,13.50
2018-01-14T19:47:03.503Z,13.80
2018-01-14T19:49:37.552Z,14.20
2018-01-14T19:52:12.108Z,14.00
2018-01-14T19:54:46.306Z,13.47
2018-01-14T19:57:20.434Z,14.43
2018-01-14T19:59:54.447Z,15.00
2018-01-14T20:02:29.360Z,14.63
2018-01-14T20:05:03.477Z,14.47
2018-01-14T20:07:37.998Z,13.17
2018-01-14T20:10:12.310Z,14.00
2018-01-14T20:12:47.876Z,13.90
2018-01-14T20:15:21.664Z,14.20
2018-01-14T20:17:56.350Z,14.67
2018-01-14T20:20:31.013Z,14.53
2018-01-14T20:23:05.335Z,14.33
2018-01-14T20:25:39.856Z,13.70
2018-01-14T20:28:15.359Z,15.63
2018-01-14T20:30:49.565Z,14.77
2018-01-14T20:33:25.266Z,14.33
2018-01-14T20:35:59.070Z,14.27
2018-01-14T20:38:32.879Z,14.33
2018-01-14T20:41:06.722Z,14.63
2018-01-14T20:43:41.619Z,14.10
2018-01-14T20:46:15.626Z,14.60
2018-01-14T20:48:50.025Z,14.70
2018-01-14T20:51:23.854Z,15.03
2018-01-14T20:53:58.414Z,14.13
2018-01-14T20:56:32.325Z,14.90
2018-01-14T20:59:07.344Z,14.87
2018-01-14T21:01:42.236Z,16.63
2018-01-14T21:04:16.288Z,13.97
2018-01-14T21:06:51.153Z,13.30
2018-01-14T21:09:25.064Z,15.30
2018-01-14T21:11:59.768Z,13.70
2018-01-14T21:14:35.029Z,14.13
2018-01-14T21:17:09.103Z,13.97
2018-01-14T21:19:43.708Z,14.93
2018-01-14T21:22:19.007Z,14.13
2018-01-14T21:24:52.927Z,14.43
2018-01-14T21:27:26.737Z,14.60
2018-01-14T21:30:00.455Z,14.00
2018-01-14T21:32:35.173Z,14.23
2018-01-14T21:35:09.827Z,13.63
2018-01-14T21:37:44.150Z,13.80
2018-01-14T21:40:18.896Z,14.03
2018-01-14T21:42:53.537Z,14.50
2018-01-14T21:45:27.303Z,14.80
2018-01-14T21:48:01.881Z,13.97
2018-01-14T21:50:35.928Z,13.47
2018-01-14T21:53:10.486Z,13.60
2018-01-14T21:55:44.496Z,14.13
2018-01-14T21:58:19.736Z,14.13
2018-01-14T22:00:54.016Z,13.33
2018-01-14T22:03:28.790Z,12.33
2018-01-14T22:06:02.803Z,15.27
2018-01-14T22:08:36.887Z,13.60
2018-01-14T22:11:11.541Z,12.53
2018-01-14T22:13:46.182Z,12.33
2018-01-14T22:16:20.524Z,13.17
2018-01-14T22:18:54.421Z,12.87
2018-01-14T22:21:28.882Z,13.33
2018-01-14T22:24:03.153Z,11.90
2018-01-14T22:26:37.694Z,12.73
2018-01-14T22:29:11.876Z,13.03
2018-01-14T22:31:45.972Z,13.50
2018-01-14T22:34:20.704Z,12.77
2018-01-14T22:36:54.787Z,12.83
2018-01-14T22:39:28.770Z,12.07
2018-01-14T22:42:03.343Z,13.60
2018-01-14T22:44:37.392Z,13.03
2018-01-14T22:47:11.214Z,12.67
2018-01-14T22:49:45.183Z,13.10
2018-01-14T22:52:19.974Z,13.17
2018-01-14T22:54:54.700Z,13.60
2018-01-14T22:57:29.402Z,13.73
2018-01-14T23:00:04.019Z,13.00
2018-01-14T23:02:38.198Z,13.30
2018-01-14T23:05:11.934Z,13.10
2018-01-14T23:07:46.582Z,13.43
2018-01-14T23:10:20.498Z,12.63
2018-01-14T23:12:54.328Z,11.77
2018-01-14T23:15:29.087Z,12.57
2018-01-14T23:18:03.527Z,12.43
2018-01-14T23:20:38.087Z,12.10
2018-01-14T23:23:12.473Z,13.23
2018-01-14T23:25:47.786Z,13.47
2018-01-14T23:28:21.731Z,14.17
2018-01-14T23:30:56.295Z,14.57
2018-01-14T23:33:31.604Z,13.23
2018-01-14T23:36:05.596Z,14.47
2018-01-14T23:38:39.398Z,13.57
2018-01-14T23:41:13.614Z,14.40
2018-01-14T23:43:48.357Z,15.63
2018-01-14T23:46:23.104Z,15.80
2018-01-14T23:48:57.482Z,14.00
2018-01-14T23:51:31.417Z,13.73
2018-01-14T23:54:06.083Z,18.37
2018-01-14T23:56:39.923Z,14.70
2018-01-14T23:59:14.471Z,16.57
